Flight Track Log - Related Links

Times and Time Zones

All times are in EDT time to prevent confusion due to time zone crossing. See the SWA1017 flight status page for this flight to view local times or setup timezone preferences in your user account.

Time Position Orientation Groundspeed Altitude Reporting Facility
EDT Latitude Longitude Course Direction KTS MPH feet Rate Location/Type
Fri 08:00:18 PM 30.0900 -97.7136 280° West 196 226 5,400  Level Houston Center
Fri 08:01:20 PM 30.0669 -97.7736 246° West 256 295 8,500 2,806 Climbing Houston Center
Fri 08:02:22 PM 30.1358 -97.8306 324° Northwest 312 359 11,200 3,048 Climbing Houston Center
Fri 08:03:24 PM 30.2153 -97.9097 319° Northwest 346 398 14,800 3,290 Climbing Houston Center
Fri 08:04:00 PM 30.3167 -98.3070 270° West  Level FlightAware Approximate
Fri 08:04:26 PM 30.2356 -98.0161 282° West 338 389 18,000  Level Houston Center
Fri 08:05:00 PM 30.3380 -98.4136 280° West  Level FlightAware Approximate
Fri 08:05:27 PM 30.2592 -98.1322 283° West 345 397 20,300  Level Houston Center
Fri 08:06:29 PM 30.2831 -98.2486 283° West 368 423 22,000 823 Climbing Houston Center
Fri 08:07:31 PM 30.3086 -98.3728 283° West 388 447 22,000  Level Houston Center
Fri 08:08:33 PM 30.3372 -98.5094 284° West 409 471 22,000  Level Houston Center
Fri 08:09:35 PM 30.3636 -98.6422 283° West 417 480 22,000  Level Houston Center
Fri 08:10:37 PM 30.3906 -98.7744 283° West 418 481 22,000  Level Houston Center
Fri 08:11:39 PM 30.4361 -98.8981 293° West 423 487 22,000  Level Houston Center
Fri 08:12:41 PM 30.5411 -98.9508 337° Northwest 410 472 22,000  Level Houston Center
Fri 08:13:42 PM 30.6444 -98.9997 338° Northwest 399 459 22,000 49 Level Houston Center
Fri 08:14:44 PM 30.7472 -99.0472 338° Northwest 395 455 22,100 484 Climbing Houston Center
Fri 08:15:46 PM 30.8519 -99.0956 338° Northwest 399 459 23,000 1,258 Climbing Houston Center
Fri 08:16:48 PM 30.9578 -99.1450 338° Northwest 403 464 24,700 1,548 Climbing Houston Center
Fri 08:17:50 PM 31.0761 -99.1997 338° Northwest 417 480 26,200 1,415 Climbing Houston Center
Fri 08:18:51 PM 31.1917 -99.2539 338° Northwest 442 509 27,600 1,610 Climbing Houston Center
Fri 08:19:53 PM 31.3100 -99.3092 338° Northwest 455 524 29,500 2,129 Climbing Houston Center
Fri 08:20:55 PM 31.4400 -99.3700 338° Northwest 446 513 32,000 1,210 Climbing Houston Center
Fri 08:21:57 PM 31.5553 -99.4239 338° Northwest 440 506 32,000  Level Houston Center
Fri 08:22:59 PM 31.6725 -99.4769 339° North 445 512 32,000  Level Houston Center
Fri 08:24:01 PM 31.7889 -99.5331 338° Northwest 441 507 32,000  Level Houston Center
Fri 08:25:03 PM 31.9050 -99.5878 338° Northwest 447 514 32,000  Level Houston Center
Fri 08:26:05 PM 32.0222 -99.6431 338° Northwest 453 521 32,000  Level Houston Center
Fri 08:27:06 PM 32.1597 -99.7092 338° Northwest 450 518 32,000  Level Houston Center
Fri 08:28:08 PM 32.2767 -99.7653 338° Northwest 451 519 32,000  Level Houston Center
Fri 08:29:13 PM 32.4017 -99.7878 351° North 437 503 32,000  Level Fort Worth Center
Fri 08:30:13 PM 32.5117 -99.7094 31° Northeast 421 484 32,000 -100 Level Fort Worth Center
Fri 08:31:13 PM 32.6239 -99.6283 31° Northeast 431 496 31,800 -500 Descending Fort Worth Center
Fri 08:32:13 PM 32.7358 -99.5497 31° Northeast 454 522 31,000 -400 Descending Fort Worth Center
Fri 08:33:13 PM 32.8478 -99.4683 31° Northeast 468 539 31,000  Level Fort Worth Center
Fri 08:34:13 PM 32.9414 -99.3617 44° Northeast 468 539 31,000  Level Fort Worth Center
Fri 08:35:13 PM 33.0328 -99.2519 45° Northeast 461 531 31,000  Level Fort Worth Center
Fri 08:36:13 PM 33.1264 -99.1325 47° Northeast 467 537 31,000  Level Fort Worth Center
Fri 08:37:13 PM 33.2175 -99.0200 46° Northeast 473 544 31,000  Level Fort Worth Center
Fri 08:38:13 PM 33.3067 -98.9072 47° Northeast 473 544 31,000  Level Fort Worth Center
Fri 08:39:13 PM 33.4019 -98.7944 45° Northeast 473 544 31,000 -300 Level Fort Worth Center
Fri 08:40:13 PM 33.4969 -98.6814 45° Northeast 473 544 30,400 -750 Descending Fort Worth Center
Fri 08:41:13 PM 33.5814 -98.5803 45° Northeast 478 550 29,500 -1,000 Descending Fort Worth Center
Fri 08:42:13 PM 33.6742 -98.4642 46° Northeast 478 550 28,400 -1,650 Descending Fort Worth Center
Fri 08:43:13 PM 33.7692 -98.3531 44° Northeast 473 544 26,200 -2,017 Descending Fort Worth Center
Fri 08:44:12 PM 33.8450 -98.2364 52° Northeast 466 536 24,400 -1,100 Descending Fort Worth Center
Fri 08:45:13 PM 33.8500 -98.0939 88° East 424 488 24,000 -198 Descending Fort Worth Center
Fri 08:46:13 PM 33.8194 -97.9586 105° East 398 458 24,000 -300 Level Fort Worth Center
Fri 08:47:13 PM 33.7678 -97.8158 113° Southeast 404 465 23,400 -900 Descending Fort Worth Center
Fri 08:48:13 PM 33.7181 -97.6981 117° Southeast 404 465 22,200 -1,600 Descending Fort Worth Center
Fri 08:49:13 PM 33.6722 -97.5831 116° Southeast 384 442 20,200 -2,000 Descending Fort Worth Center
Fri 08:50:13 PM 33.6308 -97.4808 116° Southeast 379 436 18,200 -2,100 Descending Fort Worth Center
Fri 08:51:13 PM 33.5494 -97.3986 140° Southeast 375 432 16,000 -1,950 Descending Fort Worth Center
Fri 08:52:13 PM 33.4678 -97.3164 140° Southeast 370 426 14,300 -1,550 Descending Fort Worth Center
Fri 08:53:13 PM 33.4136 -97.2567 137° Southeast 318 366 12,900 -1,706 Descending Fort Worth Center
Fri 08:53:55 PM 33.3667 -97.2000 135° Southeast 286 329 11,400 -1,882 Descending Dallas / Fort Worth TRACON
Fri 08:54:55 PM 33.3833 -97.1000 79° East 294 338 9,700 -1,615 Descending Dallas / Fort Worth TRACON
Fri 08:55:13 PM 33.3861 -97.0775 82° East 262 302 9,300 -1,231 Descending Fort Worth Center
Fri 08:56:13 PM 33.3922 -96.9981 85° East 274 315 8,100 -1,650 Descending Fort Worth Center
Fri 08:57:13 PM 33.4022 -96.8933 83° East 274 315 6,000 -1,850 Descending Fort Worth Center
Fri 08:58:13 PM 33.3644 -96.8339 127° Southeast 246 283 4,400 -1,000 Descending Fort Worth Center
Fri 08:59:13 PM 33.3058 -96.7919 149° Southeast 218 251 4,000 -300 Descending Fort Worth Center
Fri 09:00:13 PM 33.2494 -96.8097 195° South 222 255 3,800 -450 Descending Fort Worth Center
Fri 09:01:13 PM 33.1764 -96.8328 195° South 240 276 3,100 -350 Descending Fort Worth Center
Fri 09:02:13 PM 33.1097 -96.8531 194° South 240 276 3,100  Level Fort Worth Center
Fri 09:02:49 PM 33.0667 -96.8667 195° South 239 275 3,100  Level Dallas / Fort Worth TRACON
Fri 09:03:55 PM 33.0000 -96.8833 192° South 207 238 3,100 -400 Level Dallas / Fort Worth TRACON
Fri 09:04:49 PM 32.9500 -96.9000 196° South 211 243 2,300 -600 Descending Dallas / Fort Worth TRACON
Fri 09:05:55 PM 32.9000 -96.9000 180° South 167 192 1,900 -667 Descending Dallas / Fort Worth TRACON
Fri 09:06:55 PM 32.8667 -96.8667 140° Southeast 154 177 900 -1,000 Descending Dallas / Fort Worth TRACON
Fri 09:08:00 PM 32.8471 -96.8518 159° South  Level Estimated
Fri 09:15:00 PM 32.8471 -96.8518 159° South  Level Estimated

Login

Don't have an account? Register now (free) for customized features, flight alerts, and more!